Time;durP1;ratioP1;P1;durP2;ratioP2;P2;SDS_P1;SDS_P2;PMS_P1;PMS_P2;Temp;Humidity;BMP_temperature;BMP_pressure;BME280_temperature;BME280_humidity;BME280_pressure;Samples;Min_cycle;Max_cycle;Signal;HPM_P1;HPM_P2
2021/07/07 00:00:41;;;;;;;;;;;;;;;22.90;62.55;99588.88;2059889;28;20354;-66
2021/07/07 00:01:41;;;;;;;;;;;;;;;22.90;62.44;99588.88;2060058;28;19999;-67
2021/07/07 00:02:42;;;;;;;;;;;;;;;22.89;62.66;99578.94;2059724;28;20614;-66
2021/07/07 00:03:42;;;;;;;;;;;;;;;22.90;62.44;99583.38;2058188;28;20223;-66
2021/07/07 00:04:42;;;;;;;;;;;;;;;22.88;62.71;99574.47;2061577;28;19913;-66
2021/07/07 00:05:43;;;;;;;;;;;;;;;22.87;62.53;99573.63;2058359;28;20170;-66
2021/07/07 00:06:43;;;;;;;;;;;;;;;22.88;62.68;99585.47;2061935;28;20004;-66
2021/07/07 00:07:44;;;;;;;;;;;;;;;22.86;62.61;99582.91;2060244;28;19913;-66
2021/07/07 00:08:44;;;;;;;;;;;;;;;22.87;62.77;99583.75;2060690;28;19960;-66
2021/07/07 00:09:44;;;;;;;;;;;;;;;22.86;62.62;99588.41;2061076;28;20185;-66
2021/07/07 00:10:45;;;;;;;;;;;;;;;22.88;62.72;99579.97;2052008;28;19928;-66
2021/07/07 00:11:45;;;;;;;;;;;;;;;22.87;62.53;99575.53;2053381;28;19913;-66
2021/07/07 00:12:47;;;;;;;;;;;;;;;22.87;62.64;99583.75;2052011;28;20379;-66
2021/07/07 00:13:47;;;;;;;;;;;;;;;22.86;62.59;99587.56;2052307;28;20300;-66
2021/07/07 00:14:48;;;;;;;;;;;;;;;22.87;62.68;99589.25;2054614;28;20008;-66
2021/07/07 00:15:48;;;;;;;;;;;;;;;22.89;62.63;99581.69;2052318;28;19925;-66
2021/07/07 00:16:48;;;;;;;;;;;;;;;22.88;62.79;99585.47;2051639;28;19913;-66
2021/07/07 00:17:49;;;;;;;;;;;;;;;22.88;62.76;99579.97;2052845;28;20000;-66
2021/07/07 00:18:49;;;;;;;;;;;;;;;22.87;62.74;99583.75;2054228;28;19921;-66
2021/07/07 00:19:50;;;;;;;;;;;;;;;22.88;62.77;99590.97;2050904;28;19910;-66
2021/07/07 00:20:56;;;;;;;;;;;;;;;22.86;62.69;99571.94;2052856;28;20304;-66
2021/07/07 00:21:59;;;;;;;;;;;;;;;22.87;62.81;99564.53;2051686;28;19994;-66
2021/07/07 00:23:01;;;;;;;;;;;;;;;22.87;62.71;99561.78;2051443;28;20563;-66
2021/07/07 00:24:01;;;;;;;;;;;;;;;22.87;62.72;99568.13;2054821;28;19913;-67
2021/07/07 00:25:03;;;;;;;;;;;;;;;22.89;62.76;99567.94;2049357;28;19917;-66
2021/07/07 00:26:03;;;;;;;;;;;;;;;22.87;62.62;99568.13;2053407;28;19967;-66
2021/07/07 00:27:03;;;;;;;;;;;;;;;22.87;62.85;99564.53;2052069;28;19928;-66
2021/07/07 00:28:04;;;;;;;;;;;;;;;22.86;62.89;99566.44;2051267;28;19995;-66
2021/07/07 00:29:04;;;;;;;;;;;;;;;22.86;62.82;99565.59;2052568;28;19965;-66
2021/07/07 00:30:06;;;;;;;;;;;;;;;22.85;62.75;99569.34;2053854;28;20023;-65
2021/07/07 00:31:06;;;;;;;;;;;;;;;22.84;62.80;99565.75;2052653;28;20000;-66
2021/07/07 00:32:07;;;;;;;;;;;;;;;22.85;62.74;99563.84;2053400;28;19910;-66
2021/07/07 00:33:07;;;;;;;;;;;;;;;22.86;62.79;99574.69;2052686;28;19915;-66
2021/07/07 00:34:07;;;;;;;;;;;;;;;22.86;62.94;99560.09;2052863;28;19945;-66
2021/07/07 00:35:08;;;;;;;;;;;;;;;22.86;62.77;99565.59;2052315;28;20312;-67
2021/07/07 00:36:08;;;;;;;;;;;;;;;22.85;62.87;99569.34;2050555;28;19928;-66
2021/07/07 00:37:09;;;;;;;;;;;;;;;22.86;62.92;99554.59;2048391;28;19913;-66
2021/07/07 00:38:09;;;;;;;;;;;;;;;22.85;62.89;99559.22;2052868;28;20409;-66
2021/07/07 00:39:09;;;;;;;;;;;;;;;22.85;62.86;99563.84;2052649;28;20000;-66
2021/07/07 00:40:10;;;;;;;;;;;;;;;22.86;62.89;99562.84;2058037;28;19929;-66
2021/07/07 00:41:10;;;;;;;;;;;;;;;22.86;62.72;99576.56;2044243;28;19922;-66
2021/07/07 00:42:11;;;;;;;;;;;;;;;22.88;62.85;99585.47;2050827;28;20614;-66
2021/07/07 00:43:13;;;;;;;;;;;;;;;22.88;62.78;99574.47;2048598;28;19914;-65
2021/07/07 00:44:13;;;;;;;;;;;;;;;22.88;62.85;99572.59;2053059;28;19909;-66
2021/07/07 00:45:14;;;;;;;;;;;;;;;22.89;62.90;99562.44;2052502;28;19922;-66
2021/07/07 00:46:14;;;;;;;;;;;;;;;22.89;62.94;99565.19;2051058;28;19913;-66
2021/07/07 00:47:15;;;;;;;;;;;;;;;22.86;62.89;99560.09;2052639;28;20395;-66
2021/07/07 00:48:15;;;;;;;;;;;;;;;22.86;62.86;99566.44;2052831;28;20649;-66
2021/07/07 00:49:16;;;;;;;;;;;;;;;22.85;62.96;99572.94;2054120;28;20218;-66
2021/07/07 00:50:17;;;;;;;;;;;;;;;22.87;62.88;99579.13;2052915;28;19905;-66
2021/07/07 00:51:17;;;;;;;;;;;;;;;22.88;62.86;99577.22;2046297;28;20347;-66
2021/07/07 00:52:18;;;;;;;;;;;;;;;22.87;62.97;99584.63;2042595;28;20538;-66
2021/07/07 00:53:19;;;;;;;;;;;;;;;22.87;63.02;99584.63;2051941;28;19988;-66
2021/07/07 00:54:19;;;;;;;;;;;;;;;22.86;63.00;99582.91;2044609;28;19914;-66
2021/07/07 00:55:20;;;;;;;;;;;;;;;22.88;62.86;99574.47;2043557;28;20116;-66
2021/07/07 00:56:20;;;;;;;;;;;;;;;22.88;62.95;99574.47;2053179;28;19997;-67
2021/07/07 00:57:25;;;;;;;;;;;;;;;22.88;62.85;99575.34;2053107;28;19913;-66
2021/07/07 00:58:27;;;;;;;;;;;;;;;22.88;62.96;99579.97;2050596;28;20162;-66
2021/07/07 00:59:28;;;;;;;;;;;;;;;22.87;62.97;99578.28;2048329;28;20099;-65
2021/07/07 01:00:29;;;;;;;;;;;;;;;22.87;62.80;99575.53;2046652;28;19914;-66
2021/07/07 01:01:30;;;;;;;;;;;;;;;22.86;62.97;99577.41;2049941;28;20140;-66
2021/07/07 01:02:32;;;;;;;;;;;;;;;22.86;63.06;99587.56;2049616;28;20366;-65
2021/07/07 01:03:33;;;;;;;;;;;;;;;22.86;62.92;99582.91;2047506;28;20398;-67
2021/07/07 01:04:33;;;;;;;;;;;;;;;22.87;62.88;99589.25;2050989;28;20471;-66
2021/07/07 01:05:33;;;;;;;;;;;;;;;22.86;62.89;99582.91;2049250;28;20213;-66
2021/07/07 01:06:34;;;;;;;;;;;;;;;22.88;63.07;99582.72;2045618;28;19906;-66
2021/07/07 01:07:34;;;;;;;;;;;;;;;22.88;63.00;99578.09;2051920;28;19917;-66
2021/07/07 01:08:35;;;;;;;;;;;;;;;22.88;63.07;99580.84;2053354;28;19921;-66
2021/07/07 01:09:36;;;;;;;;;;;;;;;22.88;62.91;99579.97;2048175;28;20290;-66
2021/07/07 01:10:37;;;;;;;;;;;;;;;22.87;62.95;99581.88;2058482;28;20441;-66
2021/07/07 01:11:37;;;;;;;;;;;;;;;22.88;62.84;99588.22;2054480;28;19940;-66
2021/07/07 01:12:38;;;;;;;;;;;;;;;22.89;63.00;99584.44;2056095;28;19914;-66
2021/07/07 01:13:39;;;;;;;;;;;;;;;22.88;62.88;99591.84;2057529;28;19909;-67
2021/07/07 01:14:39;;;;;;;;;;;;;;;22.90;63.00;99591.63;2059445;28;19944;-66
2021/07/07 01:15:44;;;;;;;;;;;;;;;22.87;63.03;99597.50;2054672;28;19914;-66
2021/07/07 01:16:45;;;;;;;;;;;;;;;22.88;63.04;99590.97;2058912;28;20418;-66
2021/07/07 01:17:46;;;;;;;;;;;;;;;22.88;63.14;99597.34;2060475;28;19912;-66
2021/07/07 01:18:47;;;;;;;;;;;;;;;22.88;62.81;99596.44;2051533;28;19978;-66
2021/07/07 01:19:47;;;;;;;;;;;;;;;22.88;62.97;99599.19;2045198;28;20408;-66
2021/07/07 01:20:47;;;;;;;;;;;;;;;22.88;62.95;99599.19;2048553;28;20425;-66
2021/07/07 01:21:48;;;;;;;;;;;;;;;22.90;62.86;99605.38;2060959;28;20165;-66
2021/07/07 01:22:49;;;;;;;;;;;;;;;22.86;63.18;99604.06;2054116;28;19913;-66
2021/07/07 01:23:53;;;;;;;;;;;;;;;22.86;63.03;99604.06;2051117;28;19961;-66
2021/07/07 01:24:53;;;;;;;;;;;;;;;22.87;63.10;99600.25;2039592;28;19929;-66
2021/07/07 01:25:53;;;;;;;;;;;;;;;22.88;63.04;99612.94;2046102;28;19921;-66
2021/07/07 01:26:54;;;;;;;;;;;;;;;22.86;63.28;99604.06;2057923;28;19948;-66
2021/07/07 01:27:57;;;;;;;;;;;;;;;22.85;63.25;99607.81;2046742;28;20009;-66
2021/07/07 01:28:57;;;;;;;;;;;;;;;22.84;63.14;99603.38;2050193;28;19941;-66
2021/07/07 01:29:58;;;;;;;;;;;;;;;22.84;63.11;99601.47;2047163;28;19917;-66
2021/07/07 01:30:58;;;;;;;;;;;;;;;22.85;63.15;99591.34;2050069;28;19929;-66
2021/07/07 01:31:58;;;;;;;;;;;;;;;22.85;63.21;99597.69;2060928;28;20352;-67
2021/07/07 01:32:59;;;;;;;;;;;;;;;22.85;63.30;99596.84;2060279;28;20531;-66
2021/07/07 01:34:00;;;;;;;;;;;;;;;22.85;63.28;99596.84;2060381;28;19996;-66
2021/07/07 01:35:01;;;;;;;;;;;;;;;22.84;63.07;99598.72;2060999;28;20729;-67
2021/07/07 01:36:02;;;;;;;;;;;;;;;22.86;63.10;99602.16;2050038;28;19913;-66
2021/07/07 01:37:03;;;;;;;;;;;;;;;22.87;63.16;99592.00;2052671;28;19914;-66
2021/07/07 01:38:03;;;;;;;;;;;;;;;22.88;63.27;99593.72;2060582;28;19994;-66
2021/07/07 01:39:05;;;;;;;;;;;;;;;22.87;63.09;99594.75;2052351;28;20574;-66
2021/07/07 01:40:06;;;;;;;;;;;;;;;22.88;63.13;99601.94;2051854;28;20464;-66
2021/07/07 01:41:07;;;;;;;;;;;;;;;22.88;63.05;99599.19;2059991;28;21889;-66
2021/07/07 01:42:07;;;;;;;;;;;;;;;22.88;63.20;99604.69;2062141;28;19920;-66
2021/07/07 01:43:07;;;;;;;;;;;;;;;22.87;63.20;99600.25;2050684;28;20526;-66
2021/07/07 01:44:08;;;;;;;;;;;;;;;22.88;63.23;99608.31;2049779;28;19913;-66
2021/07/07 01:45:09;;;;;;;;;;;;;;;22.88;63.24;99610.19;2061564;28;19917;-66
2021/07/07 01:46:10;;;;;;;;;;;;;;;22.87;63.30;99605.75;2059830;28;19928;-66
2021/07/07 01:47:10;;;;;;;;;;;;;;;22.86;63.12;99609.56;2060591;28;19913;-66
2021/07/07 01:48:10;;;;;;;;;;;;;;;22.87;63.20;99611.25;2060650;28;20336;-66
2021/07/07 01:49:11;;;;;;;;;;;;;;;22.87;63.30;99611.25;2059751;28;20004;-66
2021/07/07 01:50:12;;;;;;;;;;;;;;;22.87;63.45;99608.50;2060089;28;19906;-66
2021/07/07 01:51:12;;;;;;;;;;;;;;;22.87;63.38;99603.84;2059184;28;20174;-67
2021/07/07 01:52:13;;;;;;;;;;;;;;;22.86;63.29;99604.06;2061202;28;20221;-66
2021/07/07 01:53:13;;;;;;;;;;;;;;;22.87;63.26;99600.25;2056612;28;20070;-66
2021/07/07 01:54:13;;;;;;;;;;;;;;;22.86;63.33;99596.66;2060382;28;20123;-67
2021/07/07 01:55:15;;;;;;;;;;;;;;;22.85;63.31;99597.69;2061208;28;20183;-66
2021/07/07 01:56:15;;;;;;;;;;;;;;;22.84;63.51;99595.13;2059719;28;20671;-66
2021/07/07 01:57:16;;;;;;;;;;;;;;;22.84;63.38;99595.13;2061204;28;19956;-66
2021/07/07 01:58:16;;;;;;;;;;;;;;;22.83;63.47;99598.91;2055853;28;20516;-67
2021/07/07 01:59:16;;;;;;;;;;;;;;;22.85;63.45;99602.34;2059743;28;20480;-66
2021/07/07 02:00:21;;;;;;;;;;;;;;;22.85;63.37;99599.59;2061004;28;20288;-66
2021/07/07 02:01:22;;;;;;;;;;;;;;;22.85;63.50;99602.34;2061010;28;20510;-66
2021/07/07 02:02:22;;;;;;;;;;;;;;;22.87;63.38;99603.84;2062161;28;19979;-66
2021/07/07 02:03:22;;;;;;;;;;;;;;;22.86;63.35;99609.56;2060762;28;19918;-66
2021/07/07 02:04:23;;;;;;;;;;;;;;;22.85;63.47;99613.31;2060941;28;19913;-66
2021/07/07 02:05:25;;;;;;;;;;;;;;;22.85;63.50;99613.31;2061777;28;20384;-66
2021/07/07 02:06:25;;;;;;;;;;;;;;;22.86;63.43;99610.41;2057112;28;19975;-66
2021/07/07 02:07:26;;;;;;;;;;;;;;;22.86;63.43;99615.06;2057023;28;20430;-66
2021/07/07 02:08:26;;;;;;;;;;;;;;;22.86;63.38;99604.06;2051929;28;19917;-65
2021/07/07 02:09:26;;;;;;;;;;;;;;;22.86;63.52;99612.31;2051324;28;19921;-66
2021/07/07 02:10:27;;;;;;;;;;;;;;;22.85;63.36;99618.81;2048697;28;19932;-66
2021/07/07 02:11:27;;;;;;;;;;;;;;;22.84;63.44;99611.63;2052460;28;19906;-66
2021/07/07 02:12:28;;;;;;;;;;;;;;;22.83;63.46;99616.28;2052986;28;19945;-66
2021/07/07 02:13:29;;;;;;;;;;;;;;;22.86;63.39;99615.06;2044849;28;19918;-66
2021/07/07 02:14:29;;;;;;;;;;;;;;;22.86;63.63;99606.81;2044070;28;19914;-66
2021/07/07 02:15:31;;;;;;;;;;;;;;;22.87;63.52;99611.25;2053061;28;19921;-66
2021/07/07 02:16:32;;;;;;;;;;;;;;;22.85;63.37;99613.31;2050771;28;19924;-67
2021/07/07 02:17:32;;;;;;;;;;;;;;;22.85;63.49;99608.66;2051485;28;19909;-67
2021/07/07 02:18:32;;;;;;;;;;;;;;;22.85;63.61;99605.06;2047254;28;19910;-66
2021/07/07 02:19:33;;;;;;;;;;;;;;;22.84;63.51;99606.13;2051148;28;19977;-66
2021/07/07 02:20:34;;;;;;;;;;;;;;;22.82;63.52;99606.31;2046550;28;19961;-66
2021/07/07 02:21:35;;;;;;;;;;;;;;;22.81;63.43;99612.00;2052070;28;20440;-66
2021/07/07 02:22:36;;;;;;;;;;;;;;;22.82;63.66;99619.19;2051602;28;20294;-66
2021/07/07 02:23:36;;;;;;;;;;;;;;;22.84;63.37;99611.63;2048957;28;19910;-66
2021/07/07 02:24:36;;;;;;;;;;;;;;;22.83;63.51;99610.78;2050730;28;20084;-66
2021/07/07 02:25:38;;;;;;;;;;;;;;;22.83;63.47;99607.16;2047944;28;20397;-66
2021/07/07 02:26:39;;;;;;;;;;;;;;;22.83;63.68;99605.28;2051220;28;19918;-66
2021/07/07 02:27:40;;;;;;;;;;;;;;;22.84;63.66;99601.47;2049989;28;20277;-66
2021/07/07 02:28:40;;;;;;;;;;;;;;;22.84;63.46;99606.13;2047277;28;19956;-66
2021/07/07 02:29:41;;;;;;;;;;;;;;;22.83;63.57;99609.91;2051115;28;19913;-66
2021/07/07 02:30:42;;;;;;;;;;;;;;;22.82;63.48;99603.56;2055194;28;19964;-66
2021/07/07 02:31:42;;;;;;;;;;;;;;;22.83;63.52;99604.41;2046600;28;20291;-66
2021/07/07 02:32:43;;;;;;;;;;;;;;;22.84;63.46;99603.38;2051586;28;20929;-66
2021/07/07 02:33:43;;;;;;;;;;;;;;;22.84;63.52;99600.63;2052326;28;19941;-66
2021/07/07 02:34:43;;;;;;;;;;;;;;;22.84;63.53;99606.97;2052046;28;19944;-66
2021/07/07 02:35:44;;;;;;;;;;;;;;;22.83;63.53;99601.66;2053693;28;20539;-66
2021/07/07 02:36:44;;;;;;;;;;;;;;;22.83;63.64;99604.41;2051691;28;20437;-66
2021/07/07 02:37:49;;;;;;;;;;;;;;;22.82;63.57;99608.22;2052261;28;20431;-66
2021/07/07 02:38:49;;;;;;;;;;;;;;;22.82;63.65;99609.06;2052490;28;19913;-66
2021/07/07 02:39:50;;;;;;;;;;;;;;;22.83;63.53;99609.91;2042686;28;19910;-66
2021/07/07 02:40:51;;;;;;;;;;;;;;;22.83;63.59;99609.91;2036474;28;19915;-66
2021/07/07 02:41:52;;;;;;;;;;;;;;;22.82;63.46;99608.22;2041843;28;19961;-66
2021/07/07 02:42:53;;;;;;;;;;;;;;;22.82;63.67;99608.22;2039628;28;20405;-67
2021/07/07 02:43:53;;;;;;;;;;;;;;;22.84;63.58;99608.88;2044471;28;19910;-66
2021/07/07 02:44:53;;;;;;;;;;;;;;;22.83;63.56;99604.41;2048835;28;19967;-66
2021/07/07 02:45:54;;;;;;;;;;;;;;;22.82;63.63;99608.22;2050457;28;19913;-66
2021/07/07 02:46:54;;;;;;;;;;;;;;;22.82;63.49;99600.81;2047590;28;19914;-67
2021/07/07 02:47:54;;;;;;;;;;;;;;;22.83;63.64;99601.66;2052765;28;19914;-66
2021/07/07 02:48:55;;;;;;;;;;;;;;;22.80;63.64;99610.28;2057059;28;20393;-67
2021/07/07 02:49:55;;;;;;;;;;;;;;;22.79;63.75;99603.94;2053920;28;20170;-66
2021/07/07 02:50:55;;;;;;;;;;;;;;;22.81;63.77;99612.84;2052193;28;20165;-66
2021/07/07 02:51:56;;;;;;;;;;;;;;;22.80;63.59;99607.53;2049419;28;19916;-66
2021/07/07 02:52:56;;;;;;;;;;;;;;;22.80;63.68;99604.78;2049861;28;19968;-66
2021/07/07 02:53:57;;;;;;;;;;;;;;;22.80;63.66;99602.03;2050701;28;19913;-66
2021/07/07 02:54:57;;;;;;;;;;;;;;;22.84;63.62;99606.13;2052135;28;19921;-67
2021/07/07 02:55:57;;;;;;;;;;;;;;;22.83;63.71;99605.28;2051465;28;19956;-66
2021/07/07 02:56:58;;;;;;;;;;;;;;;22.84;63.62;99606.13;2051816;28;19913;-67
2021/07/07 02:58:05;;;;;;;;;;;;;;;22.83;63.65;99604.41;2056172;28;19968;-67
2021/07/07 02:59:05;;;;;;;;;;;;;;;22.82;63.64;99602.72;2050683;28;19968;-66
2021/07/07 03:00:06;;;;;;;;;;;;;;;22.81;63.61;99601.00;2051070;28;19922;-66
2021/07/07 03:01:06;;;;;;;;;;;;;;;22.82;63.62;99602.72;2057443;28;20228;-66
2021/07/07 03:02:08;;;;;;;;;;;;;;;22.79;63.53;99601.19;2051283;28;20174;-67
2021/07/07 03:03:13;;;;;;;;;;;;;;;22.81;63.74;99606.50;2051089;28;19989;-66
2021/07/07 03:04:13;;;;;;;;;;;;;;;22.83;63.63;99598.91;2051783;28;19917;-66
2021/07/07 03:05:14;;;;;;;;;;;;;;;22.82;63.55;99602.72;2051763;28;20096;-66
2021/07/07 03:06:14;;;;;;;;;;;;;;;22.83;63.45;99601.66;2059810;28;20400;-66
2021/07/07 03:07:14;;;;;;;;;;;;;;;22.84;63.61;99608.88;2047528;28;20356;-67
2021/07/07 03:08:15;;;;;;;;;;;;;;;22.84;63.55;99611.63;2047950;28;19910;-67
2021/07/07 03:09:15;;;;;;;;;;;;;;;22.81;63.70;99609.25;2063909;28;20489;-66
2021/07/07 03:10:15;;;;;;;;;;;;;;;22.81;63.55;99615.59;2062425;28;19979;-67
2021/07/07 03:11:16;;;;;;;;;;;;;;;22.82;63.74;99616.44;2067925;28;19927;-66
2021/07/07 03:12:16;;;;;;;;;;;;;;;22.83;63.61;99620.88;2064317;28;19912;-66
2021/07/07 03:13:17;;;;;;;;;;;;;;;22.83;63.51;99618.16;2062856;28;21139;-66
2021/07/07 03:14:18;;;;;;;;;;;;;;;22.82;63.48;99625.53;2061705;28;19908;-66
2021/07/07 03:15:18;;;;;;;;;;;;;;;22.80;63.74;99621.28;2063751;28;19914;-66
2021/07/07 03:16:19;;;;;;;;;;;;;;;22.79;63.77;99619.56;2067291;28;19927;-66
2021/07/07 03:17:19;;;;;;;;;;;;;;;22.78;63.58;99617.84;2064256;28;19963;-66
2021/07/07 03:18:20;;;;;;;;;;;;;;;22.78;63.76;99618.69;2068167;28;19927;-67
2021/07/07 03:19:21;;;;;;;;;;;;;;;22.80;63.74;99616.63;2069446;28;19917;-66
2021/07/07 03:20:21;;;;;;;;;;;;;;;22.80;63.66;99621.28;2062530;28;19917;-66
2021/07/07 03:21:22;;;;;;;;;;;;;;;22.79;63.72;99617.69;2069624;28;20427;-66
2021/07/07 03:22:22;;;;;;;;;;;;;;;22.79;63.74;99625.91;2063125;28;19948;-66
2021/07/07 03:23:23;;;;;;;;;;;;;;;22.80;63.73;99624.03;2068871;28;20301;-65
2021/07/07 03:24:24;;;;;;;;;;;;;;;22.81;63.70;99634.00;2066821;28;20042;-66
2021/07/07 03:25:24;;;;;;;;;;;;;;;22.79;63.63;99636.06;2067068;28;20007;-66
2021/07/07 03:26:24;;;;;;;;;;;;;;;22.80;63.72;99637.75;2068681;28;19913;-66
2021/07/07 03:27:25;;;;;;;;;;;;;;;22.77;63.76;99638.97;2065855;28;19913;-66
2021/07/07 03:28:25;;;;;;;;;;;;;;;22.80;63.75;99637.75;2068757;28;20275;-66
2021/07/07 03:29:25;;;;;;;;;;;;;;;22.82;63.72;99638.44;2065370;28;20327;-67
2021/07/07 03:30:26;;;;;;;;;;;;;;;22.79;63.77;99647.91;2066453;28;20198;-66
2021/07/07 03:31:26;;;;;;;;;;;;;;;22.80;63.80;99646.00;2068115;28;19913;-66
2021/07/07 03:32:27;;;;;;;;;;;;;;;22.79;63.82;99634.16;2068541;28;20356;-66
2021/07/07 03:33:27;;;;;;;;;;;;;;;22.81;63.70;99644.97;2067076;28;19913;-67
2021/07/07 03:34:27;;;;;;;;;;;;;;;22.81;63.80;99642.22;2065165;28;19951;-67
2021/07/07 03:35:28;;;;;;;;;;;;;;;22.81;63.53;99640.34;2066960;28;20384;-66
2021/07/07 03:36:29;;;;;;;;;;;;;;;22.81;63.77;99640.34;2068253;28;19913;-66
2021/07/07 03:37:29;;;;;;;;;;;;;;;22.81;63.82;99634.84;2064618;28;20349;-67
2021/07/07 03:38:29;;;;;;;;;;;;;;;22.80;63.75;99637.75;2068335;28;20357;-66
2021/07/07 03:39:29;;;;;;;;;;;;;;;22.82;63.68;99642.03;2064220;28;20291;-66
2021/07/07 03:40:31;;;;;;;;;;;;;;;22.81;63.69;99639.47;2067171;28;19916;-66
2021/07/07 03:41:33;;;;;;;;;;;;;;;22.78;63.85;99632.44;2065909;28;19924;-66
2021/07/07 03:42:33;;;;;;;;;;;;;;;22.78;63.81;99637.09;2066310;28;19932;-66
2021/07/07 03:43:34;;;;;;;;;;;;;;;22.77;63.66;99638.13;2068807;28;20003;-66
2021/07/07 03:44:34;;;;;;;;;;;;;;;22.77;63.79;99638.13;2062597;28;19905;-66
2021/07/07 03:45:34;;;;;;;;;;;;;;;22.76;63.66;99639.16;2066504;28;19928;-66
2021/07/07 03:46:35;;;;;;;;;;;;;;;22.77;63.79;99638.13;2067422;28;19909;-66
2021/07/07 03:47:35;;;;;;;;;;;;;;;22.76;63.76;99639.16;2068632;28;19917;-66
2021/07/07 03:48:36;;;;;;;;;;;;;;;22.78;63.69;99634.34;2068024;28;19917;-66
2021/07/07 03:49:36;;;;;;;;;;;;;;;22.79;63.73;99633.31;2068893;28;19912;-66
2021/07/07 03:50:37;;;;;;;;;;;;;;;22.79;63.67;99638.81;2076972;28;20942;-66
2021/07/07 03:51:38;;;;;;;;;;;;;;;22.79;63.69;99636.06;2070483;28;19912;-66
2021/07/07 03:52:39;;;;;;;;;;;;;;;22.78;63.82;99628.84;2073129;28;19913;-66
2021/07/07 03:53:39;;;;;;;;;;;;;;;22.78;63.79;99628.84;2075565;28;20205;-66
2021/07/07 03:54:39;;;;;;;;;;;;;;;22.80;63.81;99626.78;2073659;28;20391;-66
2021/07/07 03:55:40;;;;;;;;;;;;;;;22.80;63.51;99621.28;2077295;28;20193;-67
2021/07/07 03:56:40;;;;;;;;;;;;;;;22.81;63.77;99621.09;2073841;28;19993;-66
2021/07/07 03:57:41;;;;;;;;;;;;;;;22.81;63.55;99617.50;2076689;28;19923;-66
2021/07/07 03:58:41;;;;;;;;;;;;;;;22.79;63.53;99619.56;2076037;28;19909;-66
2021/07/07 03:59:43;;;;;;;;;;;;;;;22.77;63.73;99611.50;2076257;28;20864;-66
2021/07/07 04:00:43;;;;;;;;;;;;;;;22.77;63.65;99627.16;2078677;28;19917;-66
2021/07/07 04:01:43;;;;;;;;;;;;;;;22.77;63.70;99629.91;2074496;28;19912;-66
2021/07/07 04:02:44;;;;;;;;;;;;;;;22.76;63.82;99631.78;2077136;28;19939;-67
2021/07/07 04:03:44;;;;;;;;;;;;;;;22.76;63.78;99625.41;2071741;28;19919;-66
2021/07/07 04:04:44;;;;;;;;;;;;;;;22.76;63.79;99629.03;2067612;28;19913;-66
2021/07/07 04:05:45;;;;;;;;;;;;;;;22.77;63.69;99629.91;2078147;28;19923;-66
2021/07/07 04:06:45;;;;;;;;;;;;;;;22.76;63.82;99636.41;2074503;28;20386;-66
2021/07/07 04:07:46;;;;;;;;;;;;;;;22.75;63.73;99637.47;2077702;28;19944;-66
2021/07/07 04:08:46;;;;;;;;;;;;;;;22.76;63.66;99641.91;2067487;28;19960;-66
2021/07/07 04:09:46;;;;;;;;;;;;;;;22.75;63.87;99640.22;2061714;28;19917;-67
2021/07/07 04:10:47;;;;;;;;;;;;;;;22.75;63.89;99640.22;2070234;28;19913;-66
2021/07/07 04:11:47;;;;;;;;;;;;;;;22.76;63.76;99641.91;2070393;28;20640;-66
2021/07/07 04:12:49;;;;;;;;;;;;;;;22.76;63.85;99647.41;2062259;28;20048;-66
2021/07/07 04:13:49;;;;;;;;;;;;;;;22.76;63.77;99644.66;2067894;28;20011;-66
2021/07/07 04:14:49;;;;;;;;;;;;;;;22.76;63.61;99647.41;2077074;28;19924;-66
2021/07/07 04:15:50;;;;;;;;;;;;;;;22.76;63.82;99647.41;2076271;28;19950;-66
2021/07/07 04:16:56;;;;;;;;;;;;;;;22.75;63.89;99649.31;2077138;28;19924;-66
2021/07/07 04:17:56;;;;;;;;;;;;;;;22.75;63.69;99645.72;2077819;28;20004;-66
2021/07/07 04:18:57;;;;;;;;;;;;;;;22.75;63.90;99645.72;2076980;28;19919;-66
2021/07/07 04:19:57;;;;;;;;;;;;;;;22.75;63.78;99642.97;2072386;28;19913;-66
2021/07/07 04:20:58;;;;;;;;;;;;;;;22.74;63.70;99644.84;2062058;28;20007;-66
2021/07/07 04:21:59;;;;;;;;;;;;;;;22.74;63.81;99642.09;2068340;28;20552;-67
2021/07/07 04:22:59;;;;;;;;;;;;;;;22.77;63.66;99643.63;2077455;28;19966;-66
2021/07/07 04:23:59;;;;;;;;;;;;;;;22.76;63.51;99652.91;2075344;28;20162;-65
2021/07/07 04:25:00;;;;;;;;;;;;;;;22.74;63.62;99639.38;2070413;28;20957;-66
2021/07/07 04:26:01;;;;;;;;;;;;;;;22.75;63.57;99645.72;2062210;28;19913;-66
2021/07/07 04:27:02;;;;;;;;;;;;;;;22.74;63.80;99646.75;2068766;28;20400;-66
2021/07/07 04:28:03;;;;;;;;;;;;;;;22.74;63.68;99646.75;2076638;28;19919;-66
2021/07/07 04:29:03;;;;;;;;;;;;;;;22.75;63.80;99649.31;2076104;28;20006;-66
2021/07/07 04:30:08;;;;;;;;;;;;;;;22.75;63.64;99651.19;2078536;28;19917;-66
2021/07/07 04:31:08;;;;;;;;;;;;;;;22.76;63.85;99647.41;2077473;28;20013;-66
2021/07/07 04:32:10;;;;;;;;;;;;;;;22.76;63.62;99652.91;2077565;28;20346;-66
2021/07/07 04:33:10;;;;;;;;;;;;;;;22.77;63.61;99651.88;2084329;28;19912;-66
2021/07/07 04:34:11;;;;;;;;;;;;;;;22.77;63.80;99649.97;2083621;28;19912;-66
2021/07/07 04:35:13;;;;;;;;;;;;;;;22.75;63.67;99646.56;2077968;28;20233;-66
2021/07/07 04:36:13;;;;;;;;;;;;;;;22.74;63.88;99649.50;2077271;28;19959;-66
2021/07/07 04:37:14;;;;;;;;;;;;;;;22.74;63.71;99649.50;2069149;28;19920;-66
2021/07/07 04:38:14;;;;;;;;;;;;;;;22.74;63.79;99650.34;2067628;28;19954;-66
2021/07/07 04:39:14;;;;;;;;;;;;;;;22.74;63.85;99650.34;2075915;28;19915;-66
2021/07/07 04:40:15;;;;;;;;;;;;;;;22.74;63.73;99649.50;2078363;28;19913;-66
2021/07/07 04:41:16;;;;;;;;;;;;;;;22.75;63.69;99651.19;2067199;28;19913;-67
2021/07/07 04:42:16;;;;;;;;;;;;;;;22.74;63.74;99660.50;2069519;28;19909;-66
2021/07/07 04:43:16;;;;;;;;;;;;;;;22.73;63.71;99658.78;2075409;28;20311;-66
2021/07/07 04:44:16;;;;;;;;;;;;;;;22.73;63.83;99659.63;2076474;28;20323;-66
2021/07/07 04:45:17;;;;;;;;;;;;;;;22.74;63.72;99660.50;2068440;28;20022;-66
2021/07/07 04:46:18;;;;;;;;;;;;;;;22.73;63.79;99658.78;2068457;28;19916;-66
2021/07/07 04:47:18;;;;;;;;;;;;;;;22.74;63.77;99660.50;2077907;28;19913;-66
2021/07/07 04:48:19;;;;;;;;;;;;;;;22.73;63.63;99664.25;2077011;28;19969;-66
2021/07/07 04:49:19;;;;;;;;;;;;;;;22.73;63.71;99658.78;2077673;28;20439;-65
2021/07/07 04:50:20;;;;;;;;;;;;;;;22.74;63.85;99655.84;2077241;28;20303;-67
2021/07/07 04:51:20;;;;;;;;;;;;;;;22.75;63.62;99662.19;2074715;28;19939;-66
2021/07/07 04:52:20;;;;;;;;;;;;;;;22.75;63.61;99654.78;2077829;28;19912;-66
2021/07/07 04:53:21;;;;;;;;;;;;;;;22.74;63.58;99657.75;2077175;28;20002;-66
2021/07/07 04:54:21;;;;;;;;;;;;;;;22.72;63.83;99657.91;2079575;28;19913;-66
2021/07/07 04:55:21;;;;;;;;;;;;;;;22.72;63.67;99651.56;2077111;28;20508;-66
2021/07/07 04:56:22;;;;;;;;;;;;;;;22.72;63.75;99657.06;2076753;28;19957;-66
2021/07/07 04:57:22;;;;;;;;;;;;;;;22.73;63.82;99656.03;2077958;28;19917;-66
2021/07/07 04:58:25;;;;;;;;;;;;;;;22.73;63.78;99656.03;2076104;28;19904;-66
2021/07/07 04:59:26;;;;;;;;;;;;;;;22.71;63.87;99650.72;2078116;28;20110;-66
2021/07/07 05:00:26;;;;;;;;;;;;;;;22.72;63.80;99652.44;2075869;28;19908;-66
2021/07/07 05:01:26;;;;;;;;;;;;;;;22.74;63.85;99649.50;2076907;28;19913;-66
2021/07/07 05:02:27;;;;;;;;;;;;;;;22.75;63.85;99652.03;2077877;28;19912;-66
2021/07/07 05:03:27;;;;;;;;;;;;;;;22.73;63.65;99647.78;2076657;28;20669;-67
2021/07/07 05:04:27;;;;;;;;;;;;;;;22.72;63.74;99651.56;2068983;28;20407;-67
2021/07/07 05:05:28;;;;;;;;;;;;;;;22.72;63.71;99652.44;2067965;28;20145;-66
2021/07/07 05:06:29;;;;;;;;;;;;;;;22.74;63.85;99649.50;2076736;28;19917;-67
2021/07/07 05:07:29;;;;;;;;;;;;;;;22.74;63.74;99655.00;2078384;28;19908;-66
2021/07/07 05:08:29;;;;;;;;;;;;;;;22.73;63.82;99653.28;2076871;28;19909;-67
2021/07/07 05:09:30;;;;;;;;;;;;;;;22.72;63.58;99651.56;2077239;28;19920;-66
2021/07/07 05:10:31;;;;;;;;;;;;;;;22.72;63.72;99651.56;2075236;28;20035;-66
2021/07/07 05:11:32;;;;;;;;;;;;;;;22.72;63.85;99657.06;2075282;28;20410;-66
2021/07/07 05:12:33;;;;;;;;;;;;;;;22.72;63.67;99657.06;2068704;28;20355;-66
2021/07/07 05:13:33;;;;;;;;;;;;;;;22.71;63.89;99660.84;2067143;28;19974;-66
2021/07/07 05:14:34;;;;;;;;;;;;;;;22.70;63.92;99657.25;2077587;28;19913;-66
2021/07/07 05:15:34;;;;;;;;;;;;;;;22.70;63.96;99660.00;2075259;28;19905;-66
2021/07/07 05:16:35;;;;;;;;;;;;;;;22.69;63.62;99659.16;2070334;28;19944;-66